createdAt,value
2017-10-25T00:00:03.435Z,0
2017-10-25T00:00:44.016Z,0
2017-10-25T00:01:24.642Z,0
2017-10-25T00:02:05.205Z,0
2017-10-25T00:02:45.779Z,0
2017-10-25T00:03:26.381Z,0
2017-10-25T00:04:06.997Z,0
2017-10-25T00:04:47.558Z,0
2017-10-25T00:05:28.204Z,0
2017-10-25T00:06:08.768Z,0
2017-10-25T00:06:49.395Z,0
2017-10-25T00:07:30.006Z,0
2017-10-25T00:08:10.583Z,0
2017-10-25T00:08:51.179Z,0
2017-10-25T00:09:31.761Z,0
2017-10-25T00:10:12.370Z,0
2017-10-25T00:10:52.946Z,0
2017-10-25T00:11:33.514Z,0
2017-10-25T00:12:14.129Z,0
2017-10-25T00:12:54.722Z,0
2017-10-25T00:13:35.310Z,0
2017-10-25T00:14:15.898Z,0
2017-10-25T00:14:56.493Z,0
2017-10-25T00:15:37.090Z,0
2017-10-25T00:16:17.675Z,0
2017-10-25T00:16:58.334Z,0
2017-10-25T00:17:38.918Z,0
2017-10-25T00:18:19.494Z,0
2017-10-25T00:19:00.085Z,0
2017-10-25T00:19:40.695Z,0
2017-10-25T00:20:21.342Z,0
2017-10-25T00:21:01.937Z,0
2017-10-25T00:21:42.593Z,0
2017-10-25T00:22:23.211Z,0
2017-10-25T00:23:03.808Z,0
2017-10-25T00:23:44.385Z,0
2017-10-25T00:24:24.997Z,0
2017-10-25T00:25:05.590Z,0
2017-10-25T00:25:46.208Z,0
2017-10-25T00:26:26.786Z,0
2017-10-25T00:27:07.421Z,0
2017-10-25T00:27:48.032Z,0
2017-10-25T00:28:28.670Z,0
2017-10-25T00:29:09.267Z,0
2017-10-25T00:29:49.910Z,0
2017-10-25T00:30:30.518Z,0
2017-10-25T00:31:11.125Z,0
2017-10-25T00:31:51.727Z,0
2017-10-25T00:32:32.327Z,0
2017-10-25T00:33:12.933Z,0
2017-10-25T00:33:53.534Z,0
2017-10-25T00:34:34.135Z,0
2017-10-25T00:35:14.751Z,0
2017-10-25T00:35:55.406Z,0
2017-10-25T00:36:36.015Z,0
2017-10-25T00:37:16.609Z,0
2017-10-25T00:37:57.179Z,0
2017-10-25T00:38:37.757Z,0
2017-10-25T00:39:18.361Z,0
2017-10-25T00:39:58.949Z,0
2017-10-25T00:40:39.553Z,0
2017-10-25T00:41:20.130Z,0
2017-10-25T00:42:00.715Z,0
2017-10-25T00:42:41.306Z,0
2017-10-25T00:43:21.921Z,0
2017-10-25T00:44:02.513Z,0
2017-10-25T00:44:43.102Z,0
2017-10-25T00:45:23.669Z,0
2017-10-25T00:46:04.258Z,0
2017-10-25T00:46:44.848Z,0
2017-10-25T00:47:25.415Z,0
2017-10-25T00:48:05.976Z,0
2017-10-25T00:48:46.568Z,0
2017-10-25T00:49:27.133Z,0
2017-10-25T00:50:07.747Z,0
2017-10-25T00:50:48.317Z,0
2017-10-25T00:51:28.899Z,0
2017-10-25T00:52:09.490Z,0
2017-10-25T00:52:50.077Z,0
2017-10-25T00:53:30.668Z,0
2017-10-25T00:54:11.232Z,0
2017-10-25T00:54:51.830Z,0
2017-10-25T00:55:32.389Z,0
2017-10-25T00:56:12.976Z,0
2017-10-25T00:56:53.584Z,0
2017-10-25T00:57:34.157Z,0
2017-10-25T00:58:14.761Z,0
2017-10-25T00:58:55.347Z,0
2017-10-25T00:59:35.909Z,0
2017-10-25T01:00:16.498Z,0
2017-10-25T01:00:57.114Z,0
2017-10-25T01:01:37.755Z,0
2017-10-25T01:02:18.332Z,0
2017-10-25T01:02:58.945Z,0
2017-10-25T01:03:39.544Z,0
2017-10-25T01:04:20.140Z,0
2017-10-25T01:05:00.746Z,0
2017-10-25T01:05:41.315Z,0
2017-10-25T01:06:21.918Z,0
2017-10-25T01:07:02.484Z,0
2017-10-25T01:07:43.112Z,0
2017-10-25T01:08:23.686Z,0
2017-10-25T01:09:04.325Z,0
2017-10-25T01:09:44.908Z,0
2017-10-25T01:10:25.507Z,0
2017-10-25T01:11:06.145Z,0
2017-10-25T01:11:46.709Z,0
2017-10-25T01:12:27.292Z,0
2017-10-25T01:13:07.883Z,0
2017-10-25T01:13:48.486Z,0
2017-10-25T01:14:29.092Z,0
2017-10-25T01:15:09.691Z,0
2017-10-25T01:15:50.273Z,0
2017-10-25T01:16:30.859Z,0
2017-10-25T01:17:11.481Z,0
2017-10-25T01:17:52.098Z,0
2017-10-25T01:18:32.701Z,0
2017-10-25T01:19:13.333Z,0
2017-10-25T01:19:53.955Z,0
2017-10-25T01:20:34.541Z,0
2017-10-25T01:21:15.143Z,0
2017-10-25T01:21:55.716Z,0
2017-10-25T01:22:36.293Z,0
2017-10-25T01:23:16.941Z,0
2017-10-25T01:23:57.576Z,0
2017-10-25T01:24:38.150Z,0
2017-10-25T01:25:18.714Z,0
2017-10-25T01:25:59.295Z,0
2017-10-25T01:26:39.867Z,0
2017-10-25T01:27:20.458Z,0
2017-10-25T01:28:01.073Z,0
2017-10-25T01:28:41.633Z,0
2017-10-25T01:29:22.209Z,0
2017-10-25T01:30:02.808Z,0
2017-10-25T01:30:43.386Z,0
2017-10-25T01:31:23.968Z,0
2017-10-25T01:32:04.581Z,0
2017-10-25T01:32:45.182Z,0
2017-10-25T01:33:25.786Z,0
2017-10-25T01:34:06.381Z,0
2017-10-25T01:34:46.989Z,0
2017-10-25T01:35:27.582Z,0
2017-10-25T01:36:08.149Z,0
2017-10-25T01:36:48.756Z,0
2017-10-25T01:37:29.360Z,0
2017-10-25T01:38:09.955Z,0
2017-10-25T01:38:50.543Z,0
2017-10-25T01:39:31.171Z,0
2017-10-25T01:40:11.752Z,0
2017-10-25T01:40:52.342Z,0
2017-10-25T01:41:32.929Z,0
2017-10-25T01:42:13.544Z,0
2017-10-25T01:42:54.170Z,0
2017-10-25T01:43:34.760Z,0
2017-10-25T01:44:15.369Z,0
2017-10-25T01:44:55.963Z,0
2017-10-25T01:45:36.531Z,0
2017-10-25T01:46:17.101Z,0
2017-10-25T01:46:57.653Z,0
2017-10-25T01:47:38.223Z,0
2017-10-25T01:48:18.799Z,0
2017-10-25T01:48:59.384Z,0
2017-10-25T01:49:39.980Z,0
2017-10-25T01:50:20.559Z,0
2017-10-25T01:51:01.140Z,0
2017-10-25T01:51:41.732Z,0
2017-10-25T01:52:22.299Z,0
2017-10-25T01:53:02.889Z,0
2017-10-25T01:53:43.450Z,0
2017-10-25T01:54:24.048Z,0
2017-10-25T01:55:04.643Z,0
2017-10-25T01:55:45.242Z,0
2017-10-25T01:56:25.814Z,0
2017-10-25T01:57:06.416Z,0
2017-10-25T01:57:47.007Z,0
2017-10-25T01:58:27.580Z,0
2017-10-25T01:59:08.176Z,0
2017-10-25T01:59:48.770Z,0
2017-10-25T02:00:29.334Z,0
2017-10-25T02:01:09.915Z,0
2017-10-25T02:01:50.493Z,0
2017-10-25T02:02:31.105Z,0
2017-10-25T02:03:11.693Z,0
2017-10-25T02:03:52.263Z,0
2017-10-25T02:04:32.855Z,0
2017-10-25T02:05:13.454Z,0
2017-10-25T02:05:54.011Z,0
2017-10-25T02:06:34.598Z,0
2017-10-25T02:07:15.167Z,0
2017-10-25T02:07:55.738Z,0
2017-10-25T02:08:36.319Z,0
2017-10-25T02:09:16.921Z,0
2017-10-25T02:09:57.513Z,0
2017-10-25T02:10:38.095Z,0
2017-10-25T02:11:18.688Z,0
2017-10-25T02:11:59.262Z,0
2017-10-25T02:12:39.845Z,0
2017-10-25T02:13:20.432Z,0
2017-10-25T02:14:00.988Z,0
2017-10-25T02:14:41.568Z,0
2017-10-25T02:15:22.155Z,0
2017-10-25T02:16:02.728Z,0
2017-10-25T02:16:43.332Z,0
2017-10-25T02:17:23.914Z,0
2017-10-25T02:18:04.494Z,0
2017-10-25T02:18:45.067Z,0
2017-10-25T02:19:25.634Z,0
2017-10-25T02:20:06.305Z,0
2017-10-25T02:20:46.875Z,0
2017-10-25T02:21:27.460Z,0
2017-10-25T02:22:08.037Z,0
2017-10-25T02:22:48.628Z,0
2017-10-25T02:23:29.216Z,0
2017-10-25T02:24:09.896Z,0
2017-10-25T02:24:50.570Z,0
2017-10-25T02:25:31.355Z,0
2017-10-25T02:26:12.276Z,0
2017-10-25T02:26:53.050Z,0
2017-10-25T02:27:33.904Z,0
2017-10-25T02:28:14.755Z,0
2017-10-25T02:28:55.585Z,0
2017-10-25T02:29:36.363Z,0
2017-10-25T02:30:17.292Z,0
2017-10-25T02:30:58.315Z,0
2017-10-25T02:31:39.796Z,0
2017-10-25T02:32:20.608Z,0
2017-10-25T02:33:01.393Z,0
2017-10-25T02:33:42.207Z,0
2017-10-25T02:34:22.807Z,0
2017-10-25T02:35:03.388Z,0
2017-10-25T02:35:43.993Z,0
2017-10-25T02:36:24.612Z,0
2017-10-25T02:37:05.177Z,0
2017-10-25T02:37:45.792Z,0
2017-10-25T02:38:26.394Z,0
2017-10-25T02:39:06.995Z,0
2017-10-25T02:39:47.571Z,0
2017-10-25T02:40:28.210Z,0
2017-10-25T02:41:08.804Z,0
2017-10-25T02:41:49.430Z,0
2017-10-25T02:42:30.012Z,0
2017-10-25T02:43:10.634Z,0
2017-10-25T02:43:51.409Z,0
2017-10-25T02:44:32.148Z,0
2017-10-25T02:45:12.973Z,0
2017-10-25T02:45:53.812Z,0
2017-10-25T02:46:34.535Z,0
2017-10-25T02:47:15.230Z,0
2017-10-25T02:47:56.036Z,0
2017-10-25T02:48:36.793Z,0
2017-10-25T02:49:17.571Z,0
2017-10-25T02:49:58.517Z,0
2017-10-25T02:50:39.323Z,0
2017-10-25T02:51:20.065Z,0
2017-10-25T02:52:00.855Z,0
2017-10-25T02:52:41.426Z,0
2017-10-25T02:53:22.040Z,0
2017-10-25T02:54:02.618Z,0
2017-10-25T02:54:43.218Z,0
2017-10-25T02:55:23.801Z,0
2017-10-25T02:56:04.394Z,0
2017-10-25T02:56:45.029Z,0
2017-10-25T02:57:25.662Z,0
2017-10-25T02:58:06.241Z,0
2017-10-25T02:58:46.867Z,0
2017-10-25T02:59:27.590Z,0
2017-10-25T03:00:08.692Z,0
2017-10-25T03:00:49.417Z,0
2017-10-25T03:01:30.241Z,0
2017-10-25T03:02:10.951Z,0
2017-10-25T03:02:51.882Z,0
2017-10-25T03:03:32.664Z,0
2017-10-25T03:04:13.434Z,0
2017-10-25T03:04:54.230Z,0
2017-10-25T03:05:35.046Z,0
2017-10-25T03:06:15.694Z,0
2017-10-25T03:06:56.415Z,0
2017-10-25T03:07:37.080Z,0
2017-10-25T03:08:17.745Z,0
2017-10-25T03:08:58.338Z,0
2017-10-25T03:09:38.933Z,0
2017-10-25T03:10:19.513Z,0
2017-10-25T03:11:00.156Z,0
2017-10-25T03:11:40.831Z,0
2017-10-25T03:12:21.480Z,0
2017-10-25T03:13:02.099Z,0
2017-10-25T03:13:42.700Z,0
2017-10-25T03:14:23.300Z,0
2017-10-25T03:15:03.937Z,0
2017-10-25T03:15:44.557Z,0
2017-10-25T03:16:25.142Z,0
2017-10-25T03:17:05.732Z,0
2017-10-25T03:17:46.341Z,0
2017-10-25T03:18:26.935Z,0
2017-10-25T03:19:07.512Z,0
2017-10-25T03:19:48.145Z,0
2017-10-25T03:20:28.746Z,0
2017-10-25T03:21:09.371Z,0
2017-10-25T03:21:49.997Z,0
2017-10-25T03:22:30.595Z,0
2017-10-25T03:23:11.206Z,0
2017-10-25T03:23:51.856Z,0
2017-10-25T03:24:32.444Z,0
2017-10-25T03:25:13.063Z,0
2017-10-25T03:25:53.649Z,0
2017-10-25T03:26:34.252Z,0
2017-10-25T03:27:14.946Z,0
2017-10-25T03:27:55.544Z,0
2017-10-25T03:28:36.120Z,0
2017-10-25T03:29:16.692Z,0
2017-10-25T03:29:57.266Z,0
2017-10-25T03:30:37.844Z,0
2017-10-25T03:31:18.449Z,0
2017-10-25T03:31:59.021Z,0
2017-10-25T03:32:39.629Z,0
2017-10-25T03:33:20.201Z,0
2017-10-25T03:34:00.802Z,0
2017-10-25T03:34:41.415Z,0
2017-10-25T03:35:22.018Z,0
2017-10-25T03:36:02.624Z,0
2017-10-25T03:36:43.199Z,0
2017-10-25T03:37:23.815Z,0
2017-10-25T03:38:04.399Z,0
2017-10-25T03:38:44.987Z,0
2017-10-25T03:39:25.568Z,0
2017-10-25T03:40:06.160Z,0
2017-10-25T03:40:46.748Z,0
2017-10-25T03:41:27.337Z,0
2017-10-25T03:42:07.953Z,0
2017-10-25T03:42:48.536Z,0
2017-10-25T03:43:29.152Z,0
2017-10-25T03:44:09.734Z,0
2017-10-25T03:44:50.310Z,0
2017-10-25T03:45:30.891Z,0
2017-10-25T03:46:11.529Z,0
2017-10-25T03:46:52.117Z,0
2017-10-25T03:47:32.727Z,0
2017-10-25T03:48:13.334Z,0
2017-10-25T03:48:53.916Z,0
2017-10-25T03:49:34.509Z,0
2017-10-25T03:50:15.133Z,0
2017-10-25T03:50:55.730Z,0
2017-10-25T03:51:36.301Z,0
2017-10-25T03:52:16.925Z,0
2017-10-25T03:52:57.527Z,0
2017-10-25T03:53:38.144Z,0
2017-10-25T03:54:18.735Z,0
2017-10-25T03:54:59.361Z,0
2017-10-25T03:55:39.944Z,0
2017-10-25T03:56:20.531Z,0
2017-10-25T03:57:01.176Z,0
2017-10-25T03:57:41.847Z,0
2017-10-25T03:58:22.451Z,0
2017-10-25T03:59:03.044Z,0
2017-10-25T03:59:43.672Z,0
2017-10-25T04:00:24.305Z,0
2017-10-25T04:01:04.893Z,0
2017-10-25T04:01:45.547Z,0
2017-10-25T04:02:26.107Z,0
2017-10-25T04:03:06.724Z,0
2017-10-25T04:03:47.312Z,0
2017-10-25T04:04:27.894Z,0
2017-10-25T04:05:08.502Z,0
2017-10-25T04:05:49.113Z,0
2017-10-25T04:06:29.712Z,0
2017-10-25T04:07:10.308Z,0
2017-10-25T04:07:50.893Z,0
2017-10-25T04:08:31.477Z,0
2017-10-25T04:09:12.078Z,0
2017-10-25T04:09:52.649Z,0
2017-10-25T04:10:33.256Z,0
2017-10-25T04:11:13.837Z,0
2017-10-25T04:11:54.429Z,0
2017-10-25T04:12:34.999Z,0
2017-10-25T04:13:15.631Z,0
2017-10-25T04:13:56.210Z,0
2017-10-25T04:14:36.842Z,0
2017-10-25T04:15:17.433Z,0
2017-10-25T04:15:58.015Z,0
2017-10-25T04:16:38.594Z,0
2017-10-25T04:17:19.182Z,0
2017-10-25T04:17:59.780Z,0
2017-10-25T04:18:40.380Z,0
2017-10-25T04:19:21.034Z,0
2017-10-25T04:20:01.628Z,0
2017-10-25T04:20:42.229Z,0
2017-10-25T04:21:22.836Z,0
2017-10-25T04:22:03.407Z,0
2017-10-25T04:22:44.002Z,0
2017-10-25T04:23:24.581Z,0
2017-10-25T04:24:05.203Z,0
2017-10-25T04:24:45.794Z,0
2017-10-25T04:25:26.369Z,0
2017-10-25T04:26:06.959Z,0
2017-10-25T04:26:47.525Z,0
2017-10-25T04:27:28.103Z,0
2017-10-25T04:28:08.671Z,0
2017-10-25T04:28:49.232Z,0
2017-10-25T04:29:29.801Z,0
2017-10-25T04:30:10.400Z,0
2017-10-25T04:30:51.035Z,0
2017-10-25T04:31:31.628Z,0
2017-10-25T04:32:12.228Z,0
2017-10-25T04:32:52.814Z,0
2017-10-25T04:33:33.414Z,0
2017-10-25T04:34:14.000Z,0
2017-10-25T04:34:54.585Z,0
2017-10-25T04:35:35.197Z,0
2017-10-25T04:36:15.780Z,0
2017-10-25T04:36:56.409Z,0
2017-10-25T04:37:36.998Z,0
2017-10-25T04:38:17.594Z,0
2017-10-25T04:38:58.231Z,0
2017-10-25T04:39:38.827Z,0
2017-10-25T04:40:19.404Z,0
2017-10-25T04:41:00.005Z,0
2017-10-25T04:41:40.619Z,0
2017-10-25T04:42:21.221Z,0
2017-10-25T04:43:01.825Z,0
2017-10-25T04:43:42.396Z,0
2017-10-25T04:44:22.970Z,0
2017-10-25T04:45:03.581Z,0
2017-10-25T04:45:44.147Z,0
2017-10-25T04:46:24.731Z,0
2017-10-25T04:47:05.304Z,0
2017-10-25T04:47:45.894Z,0
2017-10-25T04:48:26.472Z,0
2017-10-25T04:49:07.148Z,0
2017-10-25T04:49:47.733Z,0
2017-10-25T04:50:28.318Z,0
2017-10-25T04:51:09.044Z,0
2017-10-25T04:51:49.681Z,0
2017-10-25T04:52:30.367Z,0
2017-10-25T04:53:11.011Z,0
2017-10-25T04:53:51.901Z,0
2017-10-25T04:54:32.581Z,0
2017-10-25T04:55:13.469Z,0
2017-10-25T04:55:54.355Z,0
2017-10-25T04:56:35.532Z,0
2017-10-25T04:57:16.362Z,0
2017-10-25T04:57:57.291Z,0
2017-10-25T04:58:38.037Z,0
2017-10-25T04:59:18.888Z,0
2017-10-25T04:59:59.589Z,0
2017-10-25T05:00:40.300Z,0
2017-10-25T05:01:20.918Z,0
2017-10-25T05:02:01.510Z,0
2017-10-25T05:02:42.120Z,0
2017-10-25T05:03:22.910Z,0
2017-10-25T05:04:03.831Z,0
2017-10-25T05:04:44.696Z,0
2017-10-25T05:05:25.552Z,0
2017-10-25T05:06:06.141Z,0
2017-10-25T05:06:46.711Z,0
2017-10-25T05:07:27.305Z,0
2017-10-25T05:08:07.911Z,0
2017-10-25T05:08:48.500Z,0
2017-10-25T05:09:29.090Z,0
2017-10-25T05:10:09.687Z,0
2017-10-25T05:10:50.272Z,0
2017-10-25T05:11:30.846Z,0
2017-10-25T05:12:11.442Z,0
2017-10-25T05:12:52.015Z,0
2017-10-25T05:13:32.633Z,0
2017-10-25T05:14:13.241Z,0
2017-10-25T05:14:53.846Z,0
2017-10-25T05:15:34.472Z,0
2017-10-25T05:16:15.055Z,0
2017-10-25T05:16:55.653Z,0
2017-10-25T05:17:36.244Z,0
2017-10-25T05:18:16.822Z,0
2017-10-25T05:18:57.427Z,0
2017-10-25T05:19:38.081Z,0
2017-10-25T05:20:18.688Z,0
2017-10-25T05:20:59.323Z,0
2017-10-25T05:21:39.917Z,0
2017-10-25T05:22:20.512Z,0
2017-10-25T05:23:01.128Z,0
2017-10-25T05:23:41.712Z,0
2017-10-25T05:24:22.386Z,0
2017-10-25T05:25:02.965Z,0
2017-10-25T05:25:43.564Z,0
2017-10-25T05:26:24.161Z,0
2017-10-25T05:27:04.768Z,0
2017-10-25T05:27:45.445Z,0
2017-10-25T05:28:26.046Z,0
2017-10-25T05:29:06.680Z,0
2017-10-25T05:29:47.451Z,0
2017-10-25T05:30:28.244Z,0
2017-10-25T05:31:08.853Z,0
2017-10-25T05:31:49.522Z,0
2017-10-25T05:32:30.099Z,4
2017-10-25T05:33:10.696Z,4
2017-10-25T05:33:51.309Z,4
2017-10-25T05:34:31.950Z,0
2017-10-25T05:35:12.653Z,4
2017-10-25T05:35:53.335Z,4
2017-10-25T05:36:34.106Z,4
2017-10-25T05:37:14.702Z,4
2017-10-25T05:37:55.283Z,8
2017-10-25T05:38:35.945Z,4
2017-10-25T05:39:16.593Z,4
2017-10-25T05:39:57.216Z,8
2017-10-25T05:40:37.960Z,8
2017-10-25T05:41:18.834Z,8
2017-10-25T05:41:59.522Z,8
2017-10-25T05:42:40.245Z,8
2017-10-25T05:43:20.938Z,12
2017-10-25T05:44:01.656Z,12
2017-10-25T05:44:42.401Z,12
2017-10-25T05:45:23.227Z,12
2017-10-25T05:46:03.958Z,12
2017-10-25T05:46:44.600Z,16
2017-10-25T05:47:25.536Z,12
2017-10-25T05:48:06.245Z,16
2017-10-25T05:48:46.836Z,20
2017-10-25T05:49:27.447Z,16
2017-10-25T05:50:08.038Z,16
2017-10-25T05:50:48.633Z,20
2017-10-25T05:51:29.236Z,24
2017-10-25T05:52:09.822Z,24
2017-10-25T05:52:50.406Z,20
2017-10-25T05:53:31.033Z,20
2017-10-25T05:54:11.692Z,20
2017-10-25T05:54:52.306Z,20
2017-10-25T05:55:32.933Z,20
2017-10-25T05:56:13.531Z,20
2017-10-25T05:56:54.127Z,20
2017-10-25T05:57:34.713Z,28
2017-10-25T05:58:15.338Z,24
2017-10-25T05:58:55.940Z,28
2017-10-25T05:59:36.573Z,28
2017-10-25T06:00:17.182Z,32
2017-10-25T06:00:57.758Z,32
2017-10-25T06:01:38.347Z,40
2017-10-25T06:02:19.022Z,40
2017-10-25T06:02:59.625Z,48
2017-10-25T06:03:40.240Z,48
2017-10-25T06:04:20.797Z,52
2017-10-25T06:05:01.360Z,52
2017-10-25T06:05:41.934Z,48
2017-10-25T06:06:22.518Z,44
2017-10-25T06:07:03.222Z,48
2017-10-25T06:07:43.716Z,40
2017-10-25T06:08:24.291Z,48
2017-10-25T06:09:04.895Z,56
2017-10-25T06:09:45.464Z,56
2017-10-25T06:10:26.043Z,68
2017-10-25T06:11:06.685Z,68
2017-10-25T06:11:47.305Z,80
2017-10-25T06:12:27.867Z,84
2017-10-25T06:13:08.470Z,92
2017-10-25T06:13:49.057Z,92
2017-10-25T06:14:29.652Z,80
2017-10-25T06:15:10.252Z,76
2017-10-25T06:15:50.857Z,80
2017-10-25T06:16:31.423Z,96
2017-10-25T06:17:12.025Z,108
2017-10-25T06:17:52.609Z,108
2017-10-25T06:18:33.173Z,108
2017-10-25T06:19:13.747Z,104
2017-10-25T06:19:54.323Z,88
2017-10-25T06:20:34.915Z,84
2017-10-25T06:21:15.504Z,96
2017-10-25T06:21:56.134Z,104
2017-10-25T06:22:36.755Z,112
2017-10-25T06:23:17.338Z,128
2017-10-25T06:23:57.923Z,136
2017-10-25T06:24:38.519Z,124
2017-10-25T06:25:19.099Z,124
2017-10-25T06:25:59.683Z,124
2017-10-25T06:26:40.261Z,136
2017-10-25T06:27:20.859Z,148
2017-10-25T06:28:01.440Z,156
2017-10-25T06:28:42.020Z,172
2017-10-25T06:29:22.615Z,184
2017-10-25T06:30:03.223Z,188
2017-10-25T06:30:43.809Z,224
2017-10-25T06:31:24.423Z,208
2017-10-25T06:32:05.002Z,200
2017-10-25T06:32:45.640Z,208
2017-10-25T06:33:26.212Z,172
2017-10-25T06:34:06.793Z,164
2017-10-25T06:34:47.359Z,152
2017-10-25T06:35:27.973Z,148
2017-10-25T06:36:08.543Z,136
2017-10-25T06:36:49.103Z,136
2017-10-25T06:37:29.670Z,148
2017-10-25T06:38:10.277Z,176
2017-10-25T06:38:50.850Z,200
2017-10-25T06:39:31.422Z,248
2017-10-25T06:40:12.003Z,256
2017-10-25T06:40:52.583Z,228
2017-10-25T06:41:33.179Z,272
2017-10-25T06:42:13.783Z,276
2017-10-25T06:42:54.356Z,268
2017-10-25T06:43:35.080Z,284
2017-10-25T06:44:15.696Z,264
2017-10-25T06:44:56.277Z,296
2017-10-25T06:45:36.844Z,316
2017-10-25T06:46:17.506Z,304
2017-10-25T06:46:58.068Z,252
2017-10-25T06:47:38.656Z,272
2017-10-25T06:48:19.218Z,296
2017-10-25T06:48:59.819Z,320
2017-10-25T06:49:40.394Z,312
2017-10-25T06:50:20.986Z,232
2017-10-25T06:51:01.589Z,248
2017-10-25T06:51:42.214Z,260
2017-10-25T06:52:22.805Z,284
2017-10-25T06:53:03.399Z,308
2017-10-25T06:53:43.991Z,320
2017-10-25T06:54:24.584Z,328
2017-10-25T06:55:05.159Z,400
2017-10-25T06:55:45.744Z,472
2017-10-25T06:56:26.308Z,516
2017-10-25T06:57:06.909Z,528
2017-10-25T06:57:47.510Z,520
2017-10-25T06:58:28.102Z,540
2017-10-25T06:59:08.686Z,576
2017-10-25T06:59:49.259Z,580
2017-10-25T07:00:29.838Z,596
2017-10-25T07:01:10.437Z,596
2017-10-25T07:01:51.048Z,592
2017-10-25T07:02:31.631Z,580
2017-10-25T07:03:12.219Z,572
2017-10-25T07:03:52.802Z,568
2017-10-25T07:04:33.427Z,500
2017-10-25T07:05:14.001Z,464
2017-10-25T07:05:54.574Z,484
2017-10-25T07:06:35.152Z,472
2017-10-25T07:07:15.748Z,504
2017-10-25T07:07:56.307Z,576
2017-10-25T07:08:36.926Z,624
2017-10-25T07:09:17.553Z,648
2017-10-25T07:09:58.141Z,636
2017-10-25T07:10:38.765Z,704
2017-10-25T07:11:19.412Z,720
2017-10-25T07:11:59.994Z,776
2017-10-25T07:12:40.598Z,856
2017-10-25T07:13:21.167Z,976
2017-10-25T07:14:01.792Z,1144
2017-10-25T07:14:42.386Z,1256
2017-10-25T07:15:22.943Z,1408
2017-10-25T07:16:03.533Z,1496
2017-10-25T07:16:44.126Z,1520
2017-10-25T07:17:24.727Z,1620
2017-10-25T07:18:05.308Z,1772
2017-10-25T07:18:45.905Z,1720
2017-10-25T07:19:26.472Z,1832
2017-10-25T07:20:07.039Z,1640
2017-10-25T07:20:47.629Z,1440
2017-10-25T07:21:28.255Z,1432
2017-10-25T07:22:08.828Z,1252
2017-10-25T07:22:49.458Z,1200
2017-10-25T07:23:30.048Z,1232
2017-10-25T07:24:10.633Z,1160
2017-10-25T07:24:51.225Z,1132
2017-10-25T07:25:31.793Z,1128
2017-10-25T07:26:12.399Z,1084
2017-10-25T07:26:53.034Z,1080
2017-10-25T07:27:33.632Z,1052
2017-10-25T07:28:14.234Z,1052
2017-10-25T07:28:54.933Z,1128
2017-10-25T07:29:35.504Z,1228
2017-10-25T07:30:16.096Z,1288
2017-10-25T07:30:56.669Z,1320
2017-10-25T07:31:37.259Z,1360
2017-10-25T07:32:17.831Z,1372
2017-10-25T07:32:58.406Z,1440
2017-10-25T07:33:38.987Z,1476
2017-10-25T07:34:19.572Z,1492
2017-10-25T07:35:00.170Z,1476
2017-10-25T07:35:40.791Z,1512
2017-10-25T07:36:21.368Z,1612
2017-10-25T07:37:01.987Z,1704
2017-10-25T07:37:42.551Z,1756
2017-10-25T07:38:23.136Z,1828
2017-10-25T07:39:03.747Z,1864
2017-10-25T07:39:44.338Z,1864
2017-10-25T07:40:24.940Z,1968
2017-10-25T07:41:05.515Z,2100
2017-10-25T07:41:46.090Z,2192
2017-10-25T07:42:26.680Z,2292
2017-10-25T07:43:07.277Z,2352
2017-10-25T07:43:47.863Z,2400
2017-10-25T07:44:28.438Z,2472
2017-10-25T07:45:08.998Z,2468
2017-10-25T07:45:49.570Z,2400
2017-10-25T07:46:30.152Z,2328
2017-10-25T07:47:10.762Z,2296
2017-10-25T07:47:51.332Z,2360
2017-10-25T07:48:31.909Z,2532
2017-10-25T07:49:12.509Z,2668
2017-10-25T07:49:53.100Z,3128
2017-10-25T07:50:33.682Z,2692
2017-10-25T07:51:14.248Z,2608
2017-10-25T07:51:54.818Z,2636
2017-10-25T07:52:35.444Z,2680
2017-10-25T07:53:16.021Z,2820
2017-10-25T07:53:56.590Z,2880
2017-10-25T07:54:37.178Z,2836
2017-10-25T07:55:17.769Z,2900
2017-10-25T07:55:58.361Z,3380
2017-10-25T07:56:38.949Z,2996
2017-10-25T07:57:19.520Z,3140
2017-10-25T07:58:00.124Z,3080
2017-10-25T07:58:41.674Z,3448
2017-10-25T07:59:22.291Z,3664
2017-10-25T08:00:02.932Z,4100
2017-10-25T08:00:43.516Z,4824
2017-10-25T08:01:24.087Z,5232
2017-10-25T08:02:04.739Z,5640
2017-10-25T08:02:45.513Z,5732
2017-10-25T08:03:26.385Z,5432
2017-10-25T08:04:07.174Z,5408
2017-10-25T08:04:48.664Z,4476
2017-10-25T08:05:29.269Z,4620
2017-10-25T08:06:09.997Z,5392
2017-10-25T08:06:50.559Z,4400
2017-10-25T08:07:31.151Z,5116
2017-10-25T08:08:11.790Z,4256
2017-10-25T08:08:52.340Z,3548
2017-10-25T08:09:32.937Z,3428
2017-10-25T08:10:13.522Z,3460
2017-10-25T08:10:54.133Z,3488
2017-10-25T08:11:34.723Z,4056
2017-10-25T08:12:15.317Z,4128
2017-10-25T08:12:55.885Z,4460
2017-10-25T08:13:36.495Z,3764
2017-10-25T08:14:17.189Z,5128
2017-10-25T08:14:57.778Z,5460
2017-10-25T08:15:38.434Z,4808
2017-10-25T08:16:18.998Z,4980
2017-10-25T08:16:59.604Z,4284
2017-10-25T08:17:40.185Z,4668
2017-10-25T08:18:20.750Z,4540
2017-10-25T08:19:01.331Z,5192
2017-10-25T08:19:41.941Z,6084
2017-10-25T08:20:22.554Z,5336
2017-10-25T08:21:03.152Z,4276
2017-10-25T08:21:43.722Z,4628
2017-10-25T08:22:24.393Z,4392
2017-10-25T08:23:04.998Z,4352
2017-10-25T08:23:45.607Z,4416
2017-10-25T08:24:26.165Z,4088
2017-10-25T08:25:06.768Z,4224
2017-10-25T08:25:47.370Z,4408
2017-10-25T08:26:27.990Z,3996
2017-10-25T08:27:08.571Z,3748
2017-10-25T08:27:49.164Z,3528
2017-10-25T08:28:29.773Z,3496
2017-10-25T08:29:10.376Z,3084
2017-10-25T08:29:50.966Z,2876
2017-10-25T08:30:31.536Z,2604
2017-10-25T08:31:12.100Z,2448
2017-10-25T08:31:52.691Z,2376
2017-10-25T08:32:33.271Z,2384
2017-10-25T08:33:13.840Z,2332
2017-10-25T08:33:54.421Z,2484
2017-10-25T08:34:35.004Z,2628
2017-10-25T08:35:15.572Z,2580
2017-10-25T08:35:56.134Z,2548
2017-10-25T08:36:36.708Z,2616
2017-10-25T08:37:17.276Z,2796
2017-10-25T08:37:57.851Z,3044
2017-10-25T08:38:38.435Z,3240
2017-10-25T08:39:19.032Z,3300
2017-10-25T08:39:59.618Z,3480
2017-10-25T08:40:40.202Z,3920
2017-10-25T08:41:20.776Z,4060
2017-10-25T08:42:01.380Z,4112
2017-10-25T08:42:41.982Z,4288
2017-10-25T08:43:22.584Z,4304
2017-10-25T08:44:03.152Z,4512
2017-10-25T08:44:43.714Z,4392
2017-10-25T08:45:24.288Z,4464
2017-10-25T08:46:04.919Z,4372
2017-10-25T08:46:45.493Z,4412
2017-10-25T08:47:26.074Z,4400
2017-10-25T08:48:06.637Z,4272
2017-10-25T08:48:47.257Z,3996
2017-10-25T08:49:27.841Z,3696
2017-10-25T08:50:08.453Z,3516
2017-10-25T08:50:49.066Z,3428
2017-10-25T08:51:29.635Z,3368
2017-10-25T08:52:10.222Z,3328
2017-10-25T08:52:50.791Z,3176
2017-10-25T08:53:31.459Z,3156
2017-10-25T08:54:12.022Z,3084
2017-10-25T08:54:52.631Z,2984
2017-10-25T08:55:33.236Z,2896
2017-10-25T08:56:13.849Z,2800
2017-10-25T08:56:54.417Z,2720
2017-10-25T08:57:34.987Z,2620
2017-10-25T08:58:15.575Z,2528
2017-10-25T08:58:56.151Z,2528
2017-10-25T08:59:36.731Z,2640
2017-10-25T09:00:17.308Z,2824
2017-10-25T09:00:57.939Z,2976
2017-10-25T09:01:38.501Z,3048
2017-10-25T09:02:19.088Z,3032
2017-10-25T09:02:59.663Z,3024
2017-10-25T09:03:40.248Z,3068
2017-10-25T09:04:20.863Z,3176
2017-10-25T09:05:01.459Z,3376
2017-10-25T09:05:42.083Z,3600
2017-10-25T09:06:22.669Z,3752
2017-10-25T09:07:03.255Z,3772
2017-10-25T09:07:43.832Z,3720
2017-10-25T09:08:24.435Z,3588
2017-10-25T09:09:05.012Z,3436
2017-10-25T09:09:45.645Z,3312
2017-10-25T09:10:26.262Z,3124
2017-10-25T09:11:06.868Z,2916
2017-10-25T09:11:47.438Z,2796
2017-10-25T09:12:28.003Z,2752
2017-10-25T09:13:08.582Z,2692
2017-10-25T09:13:49.178Z,2680
2017-10-25T09:14:29.731Z,2796
2017-10-25T09:15:10.344Z,3052
2017-10-25T09:15:50.932Z,3368
2017-10-25T09:16:31.499Z,3684
2017-10-25T09:17:12.072Z,4036
2017-10-25T09:17:52.645Z,4580
2017-10-25T09:18:33.221Z,4800
2017-10-25T09:19:13.808Z,5020
2017-10-25T09:19:54.404Z,5084
2017-10-25T09:20:34.991Z,5096
2017-10-25T09:21:15.600Z,4932
2017-10-25T09:21:56.197Z,4828
2017-10-25T09:22:36.743Z,4744
2017-10-25T09:23:17.318Z,4684
2017-10-25T09:23:57.902Z,4704
2017-10-25T09:24:38.509Z,4672
2017-10-25T09:25:19.087Z,4600
2017-10-25T09:25:59.673Z,4544
2017-10-25T09:26:40.244Z,4520
2017-10-25T09:27:20.833Z,4564
2017-10-25T09:28:01.415Z,4624
2017-10-25T09:28:41.996Z,4848
2017-10-25T09:29:22.578Z,5088
2017-10-25T09:30:03.150Z,5200
2017-10-25T09:30:43.726Z,5328
2017-10-25T09:31:24.300Z,5484
2017-10-25T09:32:04.916Z,5184
2017-10-25T09:32:45.497Z,5132
2017-10-25T09:33:26.069Z,5296
2017-10-25T09:34:06.639Z,5364
2017-10-25T09:34:47.209Z,5536
2017-10-25T09:35:27.780Z,5688
2017-10-25T09:36:08.361Z,6008
2017-10-25T09:36:48.927Z,6672
2017-10-25T09:37:29.516Z,7268
2017-10-25T09:38:10.095Z,6720
2017-10-25T09:38:50.678Z,6852